createdAt,value
2022-08-22T00:01:15.327Z,5.10
2022-08-22T00:02:48.331Z,6.00
2022-08-22T00:02:55.493Z,4.85
2022-08-22T00:03:10.964Z,2.25
2022-08-22T00:03:11.175Z,4.80
2022-08-22T00:07:02.378Z,4.68
2022-08-22T00:12:18.969Z,4.88
2022-08-22T00:17:48.323Z,5.28
2022-08-22T00:22:53.501Z,4.40
2022-08-22T00:28:10.625Z,4.90
2022-08-22T00:33:43.616Z,4.82
2022-08-22T00:38:56.771Z,5.30
2022-08-22T00:44:02.077Z,5.25
2022-08-22T00:49:30.723Z,4.70
2022-08-22T00:54:35.607Z,4.47
2022-08-22T01:00:03.667Z,4.50
2022-08-22T01:05:24.317Z,4.95
2022-08-22T01:10:59.049Z,4.68
2022-08-22T01:16:33.364Z,5.07
2022-08-22T01:21:44.802Z,4.93
2022-08-22T01:27:31.767Z,4.55
2022-08-22T01:33:08.835Z,4.90
2022-08-22T01:38:23.507Z,5.30
2022-08-22T01:44:01.187Z,7.00
2022-08-22T01:49:37.936Z,7.95
2022-08-22T01:54:52.554Z,7.80
2022-08-22T02:00:10.023Z,8.23
2022-08-22T02:05:19.112Z,7.88
2022-08-22T02:11:13.644Z,8.43
2022-08-22T02:16:46.652Z,8.07
2022-08-22T02:22:28.685Z,7.90
2022-08-22T02:27:45.338Z,7.75
2022-08-22T02:33:01.161Z,8.35
2022-08-22T02:38:09.407Z,8.65
2022-08-22T02:43:34.508Z,8.73
2022-08-22T02:48:52.791Z,7.03
2022-08-22T02:54:17.540Z,7.87
2022-08-22T02:59:39.565Z,7.63
2022-08-22T03:04:41.890Z,8.10
2022-08-22T03:09:50.056Z,8.63
2022-08-22T03:15:10.789Z,8.18
2022-08-22T03:20:37.189Z,7.32
2022-08-22T03:25:48.045Z,7.20
2022-08-22T03:31:10.399Z,7.07
2022-08-22T03:36:13.831Z,6.55
2022-08-22T03:41:16.162Z,6.88
2022-08-22T03:46:56.380Z,7.63
2022-08-22T03:52:32.926Z,7.00
2022-08-22T03:57:40.848Z,6.88
2022-08-22T04:03:09.979Z,7.20
2022-08-22T04:08:15.286Z,7.22
2022-08-22T04:13:33.291Z,7.00
2022-08-22T04:18:44.725Z,7.45
2022-08-22T04:24:18.173Z,6.53
2022-08-22T04:29:29.274Z,6.43
2022-08-22T04:34:40.858Z,7.20
2022-08-22T04:39:58.390Z,6.95
2022-08-22T04:45:24.872Z,6.68
2022-08-22T04:50:44.532Z,6.70
2022-08-22T04:55:57.482Z,6.75
2022-08-22T05:01:19.881Z,6.10
2022-08-22T05:06:30.421Z,6.53
2022-08-22T05:11:35.492Z,6.80
2022-08-22T05:16:42.893Z,6.60
2022-08-22T05:21:48.578Z,6.20
2022-08-22T05:26:54.447Z,7.10
2022-08-22T05:32:12.700Z,6.60
2022-08-22T05:37:23.650Z,6.93
2022-08-22T05:42:38.035Z,6.95
2022-08-22T05:47:42.397Z,6.47
2022-08-22T05:53:18.435Z,7.10
2022-08-22T05:58:39.685Z,6.60
2022-08-22T06:03:51.568Z,6.88
2022-08-22T06:09:23.643Z,6.05
2022-08-22T06:14:41.210Z,6.07
2022-08-22T06:19:48.144Z,5.67
2022-08-22T06:24:52.424Z,5.72
2022-08-22T06:30:00.135Z,5.55
2022-08-22T06:35:07.986Z,5.37
2022-08-22T06:40:14.125Z,5.78
2022-08-22T06:45:35.482Z,5.65
2022-08-22T06:50:41.470Z,6.18
2022-08-22T06:55:57.136Z,6.50
2022-08-22T07:01:11.615Z,5.65
2022-08-22T07:06:18.041Z,5.65
2022-08-22T07:11:28.545Z,5.45
2022-08-22T07:16:44.118Z,5.13
2022-08-22T07:21:48.608Z,5.28
2022-08-22T07:27:04.802Z,5.95
2022-08-22T07:32:11.413Z,6.03
2022-08-22T07:37:31.347Z,5.60
2022-08-22T07:42:55.881Z,5.78
2022-08-22T07:48:19.799Z,5.70
2022-08-22T07:53:52.927Z,5.30
2022-08-22T07:59:09.881Z,6.07
2022-08-22T08:04:21.594Z,5.88
2022-08-22T08:09:28.468Z,5.80
2022-08-22T08:14:32.008Z,5.75
2022-08-22T08:19:39.329Z,6.13
2022-08-22T08:24:44.526Z,5.53
2022-08-22T08:30:15.238Z,5.88
2022-08-22T08:35:28.640Z,5.93
2022-08-22T08:40:33.894Z,5.10
2022-08-22T08:46:03.512Z,5.53
2022-08-22T08:51:36.112Z,5.57
2022-08-22T08:56:50.197Z,6.15
2022-08-22T09:02:05.132Z,5.43
2022-08-22T09:07:42.867Z,5.25
2022-08-22T09:13:18.994Z,5.03
2022-08-22T09:18:43.656Z,4.85
2022-08-22T09:24:09.979Z,5.47
2022-08-22T09:29:34.729Z,5.28
2022-08-22T09:35:12.483Z,5.20
2022-08-22T09:45:58.280Z,5.00
2022-08-22T09:51:31.856Z,5.38
2022-08-22T09:56:47.100Z,5.13
2022-08-22T10:02:15.752Z,5.32
2022-08-22T10:07:18.206Z,5.65
2022-08-22T10:12:36.592Z,5.13
2022-08-22T10:17:57.956Z,6.05
2022-08-22T10:23:21.075Z,5.20
2022-08-22T10:28:49.983Z,5.13
2022-08-22T10:34:13.816Z,5.88
2022-08-22T10:39:23.950Z,5.30
2022-08-22T10:44:49.722Z,4.97
2022-08-22T10:50:24.192Z,4.82
2022-08-22T10:55:34.864Z,4.95
2022-08-22T11:00:50.817Z,4.68
2022-08-22T11:05:58.835Z,5.20
2022-08-22T11:11:19.499Z,4.68
2022-08-22T11:17:27.353Z,5.07
2022-08-22T11:22:34.371Z,4.55
2022-08-22T11:27:40.870Z,4.32
2022-08-22T11:33:16.596Z,5.00
2022-08-22T11:38:45.099Z,4.50
2022-08-22T11:43:59.116Z,4.60
2022-08-22T11:49:27.820Z,4.40
2022-08-22T11:54:45.630Z,4.40
2022-08-22T12:00:07.537Z,3.90
2022-08-22T12:05:23.509Z,4.40
2022-08-22T12:10:33.053Z,4.45
2022-08-22T12:16:09.188Z,3.67
2022-08-22T12:21:23.407Z,4.03
2022-08-22T12:26:54.855Z,3.78
2022-08-22T12:32:20.635Z,3.45
2022-08-22T12:37:57.795Z,3.78
2022-08-22T12:43:25.334Z,3.05
2022-08-22T12:48:45.981Z,3.00
2022-08-22T12:54:15.000Z,3.53
2022-08-22T12:59:24.830Z,3.60
2022-08-22T13:04:34.212Z,4.70
2022-08-22T13:09:43.287Z,4.10
2022-08-22T13:14:50.179Z,3.97
2022-08-22T13:20:11.055Z,4.20
2022-08-22T13:25:25.542Z,3.97
2022-08-22T13:30:37.680Z,4.78
2022-08-22T13:35:52.041Z,4.03
2022-08-22T13:40:58.335Z,5.03
2022-08-22T13:46:05.242Z,4.25
2022-08-22T13:51:16.299Z,4.65
2022-08-22T13:56:36.095Z,4.43
2022-08-22T14:01:52.994Z,4.53
2022-08-22T14:07:07.047Z,4.35
2022-08-22T14:12:21.511Z,4.68
2022-08-22T14:17:34.437Z,4.63
2022-08-22T14:22:39.464Z,5.03
2022-08-22T14:27:48.585Z,5.00
2022-08-22T14:32:59.691Z,4.90
2022-08-22T14:38:29.986Z,4.55
2022-08-22T14:43:33.421Z,5.18
2022-08-22T14:48:53.284Z,5.20
2022-08-22T14:54:13.882Z,4.88
2022-08-22T14:59:46.490Z,5.30
2022-08-22T15:04:55.490Z,6.43
2022-08-22T15:10:31.797Z,5.90
2022-08-22T15:15:55.063Z,4.88
2022-08-22T15:21:08.534Z,6.15
2022-08-22T15:26:21.135Z,6.22
2022-08-22T15:31:24.321Z,5.82
2022-08-22T15:36:28.053Z,6.70
2022-08-22T15:41:41.554Z,6.72
2022-08-22T15:47:02.532Z,7.30
2022-08-22T15:52:28.683Z,7.38
2022-08-22T16:03:27.969Z,7.80
2022-08-22T16:08:37.070Z,7.68
2022-08-22T16:13:43.286Z,9.05
2022-08-22T16:18:48.232Z,7.75
2022-08-22T16:23:50.589Z,7.82
2022-08-22T16:29:17.355Z,8.15
2022-08-22T16:34:38.903Z,8.23
2022-08-22T16:39:59.194Z,7.40
2022-08-22T16:45:07.475Z,7.35
2022-08-22T16:50:24.598Z,7.72
2022-08-22T16:55:29.816Z,8.30
2022-08-22T17:00:34.968Z,7.35
2022-08-22T17:06:01.356Z,7.25
2022-08-22T17:11:11.810Z,6.90
2022-08-22T17:16:29.900Z,6.55
2022-08-22T17:22:16.730Z,6.87
2022-08-22T17:27:32.537Z,7.22
2022-08-22T17:33:13.890Z,6.50
2022-08-22T17:38:28.967Z,7.50
2022-08-22T17:43:58.206Z,7.03
2022-08-22T17:54:20.140Z,6.82
2022-08-22T17:59:55.601Z,6.85
2022-08-22T18:05:08.424Z,5.85
2022-08-22T18:10:33.724Z,6.38
2022-08-22T18:15:50.556Z,7.97
2022-08-22T18:21:21.499Z,7.47
2022-08-22T18:26:42.324Z,6.10
2022-08-22T18:32:19.817Z,6.30
2022-08-22T18:37:35.405Z,5.15
2022-08-22T18:42:56.513Z,5.15
2022-08-22T18:47:59.162Z,5.40
2022-08-22T18:53:02.522Z,5.47
2022-08-22T18:58:29.059Z,5.20
2022-08-22T19:04:08.952Z,5.05
2022-08-22T19:09:36.770Z,5.00
2022-08-22T19:15:03.986Z,6.07
2022-08-22T19:20:40.976Z,5.88
2022-08-22T19:26:24.337Z,8.68
2022-08-22T19:31:26.692Z,8.40
2022-08-22T19:36:33.920Z,6.95
2022-08-22T19:41:48.801Z,6.63
2022-08-22T19:47:27.526Z,6.72
2022-08-22T19:52:51.435Z,7.05
2022-08-22T19:58:05.400Z,7.30
2022-08-22T20:03:32.887Z,7.35
2022-08-22T20:08:51.364Z,6.85
2022-08-22T20:14:20.154Z,7.47
2022-08-22T20:25:58.822Z,7.45
2022-08-22T20:31:04.638Z,7.32
2022-08-22T20:36:27.880Z,7.53
2022-08-22T20:41:37.665Z,8.65
2022-08-22T20:46:44.021Z,7.60
2022-08-22T20:52:06.431Z,7.65
2022-08-22T20:57:19.138Z,6.90
2022-08-22T21:02:26.801Z,6.72
2022-08-22T21:07:33.045Z,6.63
2022-08-22T21:12:35.618Z,7.45
2022-08-22T21:17:39.279Z,7.15
2022-08-22T21:22:52.842Z,6.90
2022-08-22T21:27:55.612Z,7.18
2022-08-22T21:32:58.577Z,6.40
2022-08-22T21:38:02.697Z,7.18
2022-08-22T21:43:13.444Z,6.93
2022-08-22T21:48:42.673Z,6.85
2022-08-22T21:53:45.085Z,6.25
2022-08-22T21:58:48.071Z,6.30
2022-08-22T22:03:50.588Z,5.28
2022-08-22T22:08:53.338Z,5.38
2022-08-22T22:13:56.453Z,5.00
2022-08-22T22:18:59.035Z,5.43
2022-08-22T22:24:01.559Z,5.88
2022-08-22T22:29:11.120Z,6.38
2022-08-22T22:34:13.898Z,6.32
2022-08-22T22:39:16.363Z,5.93
2022-08-22T22:44:18.719Z,7.05
2022-08-22T22:49:25.441Z,6.53
2022-08-22T22:54:28.434Z,6.63
2022-08-22T22:59:35.108Z,7.03
2022-08-22T23:04:40.684Z,6.68
2022-08-22T23:09:45.144Z,6.75
2022-08-22T23:14:47.798Z,6.57
2022-08-22T23:19:52.113Z,8.40
2022-08-22T23:24:54.593Z,7.80
2022-08-22T23:29:57.049Z,7.53
2022-08-22T23:34:59.466Z,6.65
2022-08-22T23:40:01.950Z,7.45
2022-08-22T23:45:05.133Z,6.63
2022-08-22T23:50:08.036Z,6.82
2022-08-22T23:55:10.606Z,6.70
